createdAt,value
2023-04-15T00:00:58.878Z,99.90
2023-04-15T00:03:27.139Z,99.90
2023-04-15T00:05:55.387Z,99.90
2023-04-15T00:08:23.743Z,99.90
2023-04-15T00:10:53.355Z,99.90
2023-04-15T00:13:21.437Z,99.90
2023-04-15T00:15:49.525Z,99.90
2023-04-15T00:18:17.769Z,99.90
2023-04-15T00:20:45.841Z,99.90
2023-04-15T00:23:13.905Z,99.90
2023-04-15T00:25:42.314Z,99.90
2023-04-15T00:28:11.821Z,99.90
2023-04-15T00:30:40.002Z,99.90
2023-04-15T00:33:08.612Z,99.90
2023-04-15T00:35:37.711Z,99.90
2023-04-15T00:38:08.024Z,99.90
2023-04-15T00:40:36.792Z,99.90
2023-04-15T00:43:05.729Z,99.90
2023-04-15T00:45:35.125Z,99.90
2023-04-15T00:48:03.603Z,99.90
2023-04-15T00:50:31.765Z,99.90
2023-04-15T00:52:59.831Z,99.90
2023-04-15T00:55:28.095Z,99.90
2023-04-15T00:57:57.249Z,99.90
2023-04-15T01:00:26.716Z,99.90
2023-04-15T01:02:56.234Z,99.90
2023-04-15T01:05:25.151Z,99.90
2023-04-15T01:07:53.189Z,99.90
2023-04-15T01:10:21.372Z,99.90
2023-04-15T01:12:49.751Z,99.90
2023-04-15T01:15:18.204Z,99.90
2023-04-15T01:17:46.459Z,99.90
2023-04-15T01:20:16.764Z,99.90
2023-04-15T01:22:45.233Z,99.90
2023-04-15T01:25:19.485Z,99.90
2023-04-15T01:27:49.440Z,99.90
2023-04-15T01:30:17.647Z,99.90
2023-04-15T01:32:46.073Z,99.90
2023-04-15T01:35:14.334Z,99.90
2023-04-15T01:37:42.694Z,99.90
2023-04-15T01:40:11.560Z,99.90
2023-04-15T01:42:39.604Z,99.90
2023-04-15T01:45:10.925Z,99.90
2023-04-15T01:47:39.278Z,99.90
2023-04-15T01:50:08.777Z,99.90
2023-04-15T01:52:36.830Z,99.90
2023-04-15T01:55:06.272Z,99.90
2023-04-15T01:57:34.603Z,99.90
2023-04-15T02:00:02.688Z,99.90
2023-04-15T02:02:32.298Z,99.90
2023-04-15T02:05:00.526Z,99.90
2023-04-15T02:07:28.969Z,99.90
2023-04-15T02:09:57.683Z,99.90
2023-04-15T02:12:26.017Z,99.90
2023-04-15T02:14:54.322Z,99.90
2023-04-15T02:17:22.531Z,99.90
2023-04-15T02:19:51.932Z,99.90
2023-04-15T02:22:19.952Z,99.90
2023-04-15T02:24:48.086Z,99.90
2023-04-15T02:27:19.732Z,99.90
2023-04-15T02:29:47.995Z,99.90
2023-04-15T02:32:16.364Z,99.90
2023-04-15T02:34:44.521Z,99.90
2023-04-15T02:37:16.121Z,99.90
2023-04-15T02:39:44.201Z,99.90
2023-04-15T02:42:13.337Z,99.90
2023-04-15T02:44:41.768Z,99.90
2023-04-15T02:47:11.739Z,99.90
2023-04-15T02:49:40.298Z,99.90
2023-04-15T02:52:08.333Z,99.90
2023-04-15T02:54:37.710Z,99.90
2023-04-15T02:57:06.838Z,99.90
2023-04-15T02:59:34.880Z,99.90
2023-04-15T03:02:03.076Z,99.90
2023-04-15T03:04:31.278Z,99.90
2023-04-15T03:07:02.543Z,99.90
2023-04-15T03:09:30.642Z,99.90
2023-04-15T03:12:00.134Z,99.90
2023-04-15T03:14:28.177Z,99.90
2023-04-15T03:16:56.263Z,99.90
2023-04-15T03:19:24.428Z,99.90
2023-04-15T03:21:52.816Z,99.90
2023-04-15T03:24:22.019Z,99.90
2023-04-15T03:26:50.073Z,99.90
2023-04-15T03:29:19.552Z,99.90
2023-04-15T03:31:47.612Z,99.90
2023-04-15T03:34:15.931Z,99.90
2023-04-15T03:36:44.076Z,99.90
2023-04-15T03:39:12.341Z,99.90
2023-04-15T03:41:40.522Z,99.90
2023-04-15T03:44:08.765Z,99.90
2023-04-15T03:46:38.271Z,99.90
2023-04-15T03:49:08.982Z,99.90
2023-04-15T03:51:37.156Z,99.90
2023-04-15T03:54:05.706Z,99.90
2023-04-15T03:56:33.767Z,99.90
2023-04-15T03:59:02.188Z,99.90
2023-04-15T04:01:30.728Z,99.90
2023-04-15T04:04:00.281Z,99.90
2023-04-15T04:06:28.416Z,99.90
2023-04-15T04:08:56.771Z,99.90
2023-04-15T04:11:24.844Z,99.90
2023-04-15T04:13:52.897Z,99.90
2023-04-15T04:16:21.202Z,99.90
2023-04-15T04:18:49.338Z,99.90
2023-04-15T04:21:18.852Z,99.90
2023-04-15T04:23:47.043Z,99.90
2023-04-15T04:26:15.097Z,99.90
2023-04-15T04:28:43.121Z,99.90
2023-04-15T04:31:11.429Z,99.90
2023-04-15T04:33:39.695Z,99.90
2023-04-15T04:36:08.557Z,99.90
2023-04-15T04:38:37.965Z,99.90
2023-04-15T04:41:06.670Z,99.90
2023-04-15T04:43:34.736Z,99.90
2023-04-15T04:46:03.052Z,99.90
2023-04-15T04:48:31.284Z,99.90
2023-04-15T04:50:59.556Z,99.90
2023-04-15T04:53:28.042Z,99.90
2023-04-15T04:55:57.483Z,99.90
2023-04-15T04:58:25.830Z,99.90
2023-04-15T05:00:53.961Z,99.90
2023-04-15T05:03:24.680Z,99.90
2023-04-15T05:05:52.902Z,99.90
2023-04-15T05:08:20.927Z,99.90
2023-04-15T05:10:49.013Z,99.90
2023-04-15T05:13:18.385Z,99.90
2023-04-15T05:15:46.566Z,99.90
2023-04-15T05:18:14.760Z,99.90
2023-04-15T05:20:42.887Z,99.90
2023-04-15T05:23:10.995Z,99.90
2023-04-15T05:25:39.023Z,99.90
2023-04-15T05:28:07.619Z,99.90
2023-04-15T05:30:37.109Z,99.90
2023-04-15T05:33:05.888Z,99.90
2023-04-15T05:35:33.931Z,99.90
2023-04-15T05:38:01.988Z,99.90
2023-04-15T05:40:30.103Z,99.90
2023-04-15T05:42:58.154Z,99.90
2023-04-15T05:45:26.291Z,99.90
2023-04-15T05:47:55.742Z,99.90
2023-04-15T05:50:24.476Z,99.90
2023-04-15T05:52:52.533Z,99.90
2023-04-15T05:55:20.814Z,99.90
2023-04-15T05:57:49.063Z,99.90
2023-04-15T06:00:17.537Z,99.90
2023-04-15T06:02:45.762Z,97.80
2023-04-15T06:05:15.235Z,93.20
2023-04-15T06:07:44.070Z,87.40
2023-04-15T06:10:12.881Z,84.20
2023-04-15T06:12:41.026Z,79.90
2023-04-15T06:15:11.230Z,77.80
2023-04-15T06:17:39.494Z,75.50
2023-04-15T06:20:08.846Z,69.30
2023-04-15T06:22:39.209Z,66.20
2023-04-15T06:25:09.482Z,62.60
2023-04-15T06:27:37.733Z,58.80
2023-04-15T06:30:07.480Z,55.50
2023-04-15T06:32:35.701Z,50.30
2023-04-15T06:35:04.027Z,47.00
2023-04-15T06:37:32.669Z,45.30
2023-04-15T06:40:02.337Z,43.20
2023-04-15T06:42:30.599Z,41.50
2023-04-15T06:44:58.642Z,38.80
2023-04-15T06:47:26.739Z,40.50
2023-04-15T06:49:54.846Z,41.00
2023-04-15T06:52:22.833Z,41.70
2023-04-15T06:54:51.200Z,41.80
2023-04-15T06:57:20.784Z,42.90
2023-04-15T06:59:48.852Z,43.50
2023-04-15T07:02:17.000Z,42.70
2023-04-15T07:04:45.023Z,41.70
2023-04-15T07:07:13.399Z,42.50
2023-04-15T07:09:41.646Z,43.20
2023-04-15T07:12:12.432Z,42.30
2023-04-15T07:14:41.883Z,42.50
2023-04-15T07:17:11.485Z,42.50
2023-04-15T07:19:39.617Z,42.40
2023-04-15T07:22:08.006Z,43.70
2023-04-15T07:24:36.056Z,42.00
2023-04-15T07:27:04.223Z,41.00
2023-04-15T07:29:32.523Z,38.70
2023-04-15T07:32:02.001Z,36.30
2023-04-15T07:34:31.435Z,34.70
2023-04-15T07:37:00.778Z,33.90
2023-04-15T07:39:29.339Z,33.50
2023-04-15T07:41:59.059Z,30.30
2023-04-15T07:44:27.566Z,28.80
2023-04-15T07:46:56.088Z,27.50
2023-04-15T07:49:25.744Z,26.30
2023-04-15T07:51:55.206Z,26.20
2023-04-15T07:54:23.285Z,25.10
2023-04-15T07:56:51.337Z,25.00
2023-04-15T07:59:19.370Z,24.90
2023-04-15T08:01:47.535Z,23.50
2023-04-15T08:04:15.852Z,24.00
2023-04-15T08:06:45.428Z,22.20
2023-04-15T08:09:13.645Z,21.80
2023-04-15T08:11:42.707Z,21.30
2023-04-15T08:14:10.832Z,19.00
2023-04-15T08:16:38.955Z,18.50
2023-04-15T08:19:08.046Z,17.00
2023-04-15T08:21:36.641Z,15.60
2023-04-15T08:24:08.033Z,16.50
2023-04-15T08:26:36.299Z,15.80
2023-04-15T08:29:04.670Z,15.80
2023-04-15T08:31:33.167Z,16.20
2023-04-15T08:34:01.360Z,14.60
2023-04-15T08:36:29.566Z,17.10
2023-04-15T08:38:57.737Z,14.90
2023-04-15T08:41:30.617Z,14.30
2023-04-15T08:44:03.141Z,15.50
2023-04-15T08:46:34.045Z,15.20
2023-04-15T08:49:07.073Z,15.70
2023-04-15T08:51:35.568Z,15.20
2023-04-15T08:54:05.328Z,15.40
2023-04-15T08:56:35.632Z,15.90
2023-04-15T08:59:05.370Z,15.90
2023-04-15T09:01:34.076Z,15.70
2023-04-15T09:04:06.632Z,16.10
2023-04-15T09:06:35.716Z,17.20
2023-04-15T09:09:04.019Z,16.60
2023-04-15T09:11:33.943Z,16.20
2023-04-15T09:14:02.119Z,15.80
2023-04-15T09:16:30.302Z,14.40
2023-04-15T09:18:58.432Z,12.40
2023-04-15T09:21:26.762Z,12.70
2023-04-15T09:24:00.385Z,9.90
2023-04-15T09:26:36.070Z,8.90
2023-04-15T09:29:07.900Z,8.80
2023-04-15T09:31:36.929Z,10.20
2023-04-15T09:34:05.088Z,9.60
2023-04-15T09:36:54.297Z,8.80
2023-04-15T09:39:22.740Z,8.00
2023-04-15T09:44:47.325Z,7.80
2023-04-15T09:47:29.804Z,8.80
2023-04-15T09:49:58.691Z,7.80
2023-04-15T09:52:27.305Z,8.30
2023-04-15T09:54:57.006Z,6.40
2023-04-15T09:57:25.770Z,5.50
2023-04-15T09:59:55.269Z,5.70
2023-04-15T10:02:24.215Z,4.60
2023-04-15T10:04:54.718Z,3.30
2023-04-15T10:07:24.163Z,2.80
2023-04-15T10:09:53.009Z,2.90
2023-04-15T10:12:23.142Z,2.10
2023-04-15T10:15:00.346Z,3.30
2023-04-15T10:17:31.728Z,3.50
2023-04-15T10:20:02.912Z,4.60
2023-04-15T10:22:32.549Z,4.70
2023-04-15T10:25:01.133Z,5.70
2023-04-15T10:27:29.900Z,4.80
2023-04-15T10:30:01.774Z,4.60
2023-04-15T10:32:30.768Z,5.20
2023-04-15T10:35:00.428Z,5.80
2023-04-15T10:37:37.300Z,5.40
2023-04-15T10:40:29.173Z,4.80
2023-04-15T10:42:58.669Z,6.00
2023-04-15T10:45:37.648Z,5.40
2023-04-15T10:48:08.855Z,5.30
2023-04-15T10:50:39.290Z,4.90
2023-04-15T10:53:07.474Z,4.10
2023-04-15T10:55:36.293Z,4.80
2023-04-15T10:58:04.536Z,3.80
2023-04-15T11:00:39.520Z,3.90
2023-04-15T11:03:09.784Z,4.70
2023-04-15T11:05:52.678Z,6.00
2023-04-15T11:08:22.066Z,5.00
2023-04-15T11:10:57.268Z,4.70
2023-04-15T11:13:29.397Z,4.00
2023-04-15T11:16:01.693Z,2.20
2023-04-15T11:18:33.714Z,2.50
2023-04-15T11:21:05.903Z,2.80
2023-04-15T11:23:39.806Z,3.90
2023-04-15T11:26:11.829Z,6.50
2023-04-15T11:28:41.963Z,7.30
2023-04-15T11:31:14.187Z,7.20
2023-04-15T11:33:55.549Z,6.50
2023-04-15T11:36:28.189Z,7.50
2023-04-15T11:38:59.169Z,6.00
2023-04-15T11:41:27.365Z,5.90
2023-04-15T11:43:55.474Z,5.90
2023-04-15T11:46:31.904Z,6.50
2023-04-15T11:49:00.241Z,6.00
2023-04-15T11:51:33.532Z,4.70
2023-04-15T11:54:01.833Z,4.20
2023-04-15T11:56:30.025Z,5.70
2023-04-15T11:59:00.332Z,5.80
2023-04-15T12:01:39.356Z,5.50
2023-04-15T12:04:13.759Z,3.90
2023-04-15T12:06:42.109Z,3.30
2023-04-15T12:09:13.224Z,5.70
2023-04-15T12:11:45.045Z,6.00
2023-04-15T12:14:26.174Z,6.70
2023-04-15T12:17:00.449Z,5.60
2023-04-15T12:19:32.483Z,6.10
2023-04-15T12:22:03.379Z,5.10
2023-04-15T12:24:34.528Z,4.40
2023-04-15T12:27:07.109Z,4.80
2023-04-15T12:29:38.287Z,4.90
2023-04-15T12:32:10.443Z,4.50
2023-04-15T12:34:40.747Z,4.50
2023-04-15T12:37:13.148Z,3.90
2023-04-15T12:39:43.734Z,3.20
2023-04-15T12:42:12.978Z,3.40
2023-04-15T12:44:41.784Z,4.30
2023-04-15T12:47:12.480Z,2.20
2023-04-15T12:49:41.106Z,2.30
2023-04-15T12:52:09.519Z,3.40
2023-04-15T12:54:37.492Z,3.80
2023-04-15T12:57:07.423Z,5.20
2023-04-15T12:59:35.786Z,4.30
2023-04-15T13:02:05.717Z,3.90
2023-04-15T13:04:35.362Z,5.50
2023-04-15T13:07:03.780Z,6.70
2023-04-15T13:09:32.393Z,6.60
2023-04-15T13:12:00.473Z,6.80
2023-04-15T13:14:28.574Z,6.10
2023-04-15T13:16:56.953Z,4.80
2023-04-15T13:19:24.993Z,4.70
2023-04-15T13:21:54.490Z,4.90
2023-04-15T13:24:22.469Z,3.80
2023-04-15T13:26:50.620Z,2.80
2023-04-15T13:29:18.737Z,3.70
2023-04-15T13:31:46.875Z,3.30
2023-04-15T13:34:14.918Z,3.90
2023-04-15T13:36:42.978Z,4.20
2023-04-15T13:39:12.425Z,3.00
2023-04-15T13:41:41.328Z,5.10
2023-04-15T13:44:09.389Z,4.60
2023-04-15T13:46:37.859Z,5.70
2023-04-15T13:49:06.075Z,5.80
2023-04-15T13:51:36.038Z,5.90
2023-04-15T13:54:04.119Z,4.80
2023-04-15T13:56:33.635Z,5.80
2023-04-15T13:59:02.402Z,5.10
2023-04-15T14:01:31.183Z,5.00
2023-04-15T14:03:59.357Z,5.60
2023-04-15T14:06:28.430Z,3.60
2023-04-15T14:08:56.790Z,3.60
2023-04-15T14:11:24.868Z,4.90
2023-04-15T14:13:54.243Z,3.50
2023-04-15T14:16:22.375Z,4.40
2023-04-15T14:18:50.632Z,4.20
2023-04-15T14:21:18.739Z,4.10
2023-04-15T14:23:46.724Z,3.80
2023-04-15T14:26:14.947Z,3.70
2023-04-15T14:28:44.874Z,3.80
2023-04-15T14:31:14.471Z,4.50
2023-04-15T14:33:42.780Z,4.70
2023-04-15T14:36:11.358Z,5.30
2023-04-15T14:38:40.172Z,5.20
2023-04-15T14:41:09.059Z,5.70
2023-04-15T14:43:37.478Z,5.80
2023-04-15T14:46:05.792Z,5.40
2023-04-15T14:48:35.365Z,7.20
2023-04-15T14:51:03.504Z,7.20
2023-04-15T14:53:31.546Z,8.30
2023-04-15T14:55:59.740Z,7.70
2023-04-15T14:58:27.830Z,7.50
2023-04-15T15:00:55.934Z,7.80
2023-04-15T15:03:24.543Z,7.80
2023-04-15T15:05:54.125Z,7.70
2023-04-15T15:08:22.391Z,7.60
2023-04-15T15:10:50.664Z,7.80
2023-04-15T15:13:20.095Z,7.90
2023-04-15T15:15:50.475Z,8.40
2023-04-15T15:18:19.745Z,8.40
2023-04-15T15:20:48.080Z,8.60
2023-04-15T15:23:17.604Z,8.80
2023-04-15T15:25:47.381Z,8.50
2023-04-15T15:28:15.516Z,8.70
2023-04-15T15:30:43.553Z,9.10
2023-04-15T15:33:11.701Z,9.30
2023-04-15T15:35:40.910Z,9.60
2023-04-15T15:38:08.965Z,9.40
2023-04-15T15:40:38.320Z,10.20
2023-04-15T15:43:06.379Z,10.90
2023-04-15T15:45:34.425Z,11.50
2023-04-15T15:48:03.071Z,12.30
2023-04-15T15:50:31.267Z,12.70
2023-04-15T15:52:59.526Z,13.10
2023-04-15T15:55:27.941Z,14.20
2023-04-15T15:57:57.345Z,14.10
2023-04-15T16:00:25.613Z,14.70
2023-04-15T16:05:29.135Z,15.70
2023-04-15T16:07:57.149Z,15.90
2023-04-15T16:10:25.334Z,15.20
2023-04-15T16:12:53.434Z,15.70
2023-04-15T16:15:24.649Z,15.90
2023-04-15T16:17:52.781Z,16.50
2023-04-15T16:20:20.881Z,16.30
2023-04-15T16:22:49.113Z,16.60
2023-04-15T16:25:17.189Z,15.70
2023-04-15T16:27:57.826Z,15.40
2023-04-15T16:30:32.896Z,14.90
2023-04-15T16:33:01.027Z,15.40
2023-04-15T16:35:29.278Z,16.30
2023-04-15T16:37:57.653Z,17.40
2023-04-15T16:40:26.052Z,17.30
2023-04-15T16:42:54.378Z,16.90
2023-04-15T16:45:22.393Z,16.60
2023-04-15T16:47:51.815Z,16.10
2023-04-15T16:50:19.880Z,16.40
2023-04-15T16:52:47.899Z,17.00
2023-04-15T16:55:15.976Z,16.70
2023-04-15T16:58:02.772Z,17.30
2023-04-15T17:00:32.914Z,17.10
2023-04-15T17:03:02.836Z,17.30
2023-04-15T17:05:31.568Z,17.90
2023-04-15T17:07:59.614Z,16.70
2023-04-15T17:10:27.797Z,17.20
2023-04-15T17:12:58.371Z,17.80
2023-04-15T17:15:27.144Z,17.80
2023-04-15T17:17:55.512Z,17.70
2023-04-15T17:20:26.396Z,18.60
2023-04-15T17:22:54.477Z,18.20
2023-04-15T17:25:22.621Z,18.50
2023-04-15T17:27:50.767Z,18.60
2023-04-15T17:30:18.968Z,18.60
2023-04-15T17:32:47.109Z,19.10
2023-04-15T17:35:16.521Z,19.40
2023-04-15T17:37:48.563Z,19.30
2023-04-15T17:40:16.598Z,19.50
2023-04-15T17:42:44.661Z,19.90
2023-04-15T17:45:13.244Z,20.20
2023-04-15T17:47:41.469Z,20.20
2023-04-15T17:50:10.701Z,19.90
2023-04-15T17:52:38.734Z,20.20
2023-04-15T17:55:09.756Z,20.20
2023-04-15T17:57:37.889Z,20.40
2023-04-15T18:00:08.827Z,20.40
2023-04-15T18:02:37.404Z,20.20
2023-04-15T18:05:06.906Z,20.60
2023-04-15T18:07:35.289Z,21.30
2023-04-15T18:10:03.411Z,21.70
2023-04-15T18:12:32.788Z,21.60
2023-04-15T18:15:01.078Z,21.80
2023-04-15T18:17:29.549Z,22.20
2023-04-15T18:19:57.646Z,22.40
2023-04-15T18:22:25.750Z,22.70
2023-04-15T18:24:54.520Z,22.70
2023-04-15T18:27:22.784Z,23.20
2023-04-15T18:29:52.375Z,22.80
2023-04-15T18:32:20.511Z,23.00
2023-04-15T18:34:48.560Z,23.20
2023-04-15T18:37:16.676Z,23.80
2023-04-15T18:39:44.816Z,23.50
2023-04-15T18:42:12.905Z,23.50
2023-04-15T18:44:40.882Z,23.50
2023-04-15T18:47:10.293Z,23.60
2023-04-15T18:49:38.434Z,23.40
2023-04-15T18:52:06.571Z,23.90
2023-04-15T18:54:34.730Z,23.50
2023-04-15T18:57:03.914Z,24.20
2023-04-15T18:59:32.397Z,24.20
2023-04-15T19:02:01.355Z,24.60
2023-04-15T19:04:30.920Z,24.60
2023-04-15T19:06:59.751Z,24.90
2023-04-15T19:09:29.246Z,25.20
2023-04-15T19:11:57.839Z,25.20
2023-04-15T19:14:25.877Z,25.50
2023-04-15T19:16:53.983Z,25.90
2023-04-15T19:19:22.248Z,26.00
2023-04-15T19:21:53.565Z,26.60
2023-04-15T19:24:21.972Z,26.30
2023-04-15T19:26:51.387Z,26.10
2023-04-15T19:29:19.834Z,26.20
2023-04-15T19:31:47.861Z,26.30
2023-04-15T19:34:16.043Z,26.50
2023-04-15T19:36:44.345Z,26.20
2023-04-15T19:39:14.527Z,26.40
2023-04-15T19:41:44.210Z,26.50
2023-04-15T19:44:13.000Z,27.20
2023-04-15T19:46:41.929Z,27.40
2023-04-15T19:49:10.216Z,27.90
2023-04-15T19:51:38.272Z,28.00
2023-04-15T19:54:06.485Z,28.20
2023-04-15T19:56:36.202Z,28.70
2023-04-15T19:59:04.484Z,29.10
2023-04-15T20:01:33.431Z,29.30
2023-04-15T20:04:03.429Z,29.20
2023-04-15T20:06:31.610Z,29.40
2023-04-15T20:08:59.947Z,29.00
2023-04-15T20:12:09.929Z,28.70
2023-04-15T20:14:18.891Z,28.70
2023-04-15T20:16:47.735Z,28.70
2023-04-15T20:19:15.787Z,28.50
2023-04-15T20:21:43.859Z,29.10
2023-04-15T20:24:11.952Z,29.90
2023-04-15T20:26:39.974Z,30.50
2023-04-15T20:29:08.278Z,30.40
2023-04-15T20:31:37.932Z,30.90
2023-04-15T20:34:06.044Z,31.70
2023-04-15T20:36:34.328Z,33.80
2023-04-15T20:39:02.392Z,33.50
2023-04-15T20:41:30.433Z,33.70
2023-04-15T20:43:58.498Z,32.70
2023-04-15T20:46:27.843Z,32.80
2023-04-15T20:48:57.441Z,32.80
2023-04-15T20:51:27.108Z,32.50
2023-04-15T20:53:55.553Z,32.70
2023-04-15T20:56:23.564Z,32.20
2023-04-15T20:58:51.878Z,33.10
2023-04-15T21:01:19.999Z,32.80
2023-04-15T21:03:48.354Z,33.20
2023-04-15T21:06:17.935Z,33.30
2023-04-15T21:08:45.987Z,33.60
2023-04-15T21:11:21.878Z,33.70
2023-04-15T21:13:56.663Z,33.80
2023-04-15T21:16:24.793Z,34.50
2023-04-15T21:18:52.837Z,34.70
2023-04-15T21:21:22.225Z,35.50
2023-04-15T21:23:50.356Z,36.50
2023-04-15T21:26:18.416Z,37.00
2023-04-15T21:28:46.418Z,37.20
2023-04-15T21:31:14.414Z,36.90
2023-04-15T21:33:42.490Z,37.30
2023-04-15T21:36:10.805Z,38.40
2023-04-15T21:38:40.224Z,38.40
2023-04-15T21:41:09.718Z,38.40
2023-04-15T21:43:38.238Z,38.60
2023-04-15T21:46:23.647Z,39.00
2023-04-15T21:48:53.817Z,39.70
2023-04-15T21:51:22.339Z,40.40
2023-04-15T21:53:52.575Z,41.10
2023-04-15T21:56:23.076Z,42.50
2023-04-15T21:58:51.288Z,42.90
2023-04-15T22:01:19.336Z,43.40
2023-04-15T22:03:47.625Z,44.70
2023-04-15T22:06:15.770Z,45.40
2023-04-15T22:08:55.164Z,45.20
2023-04-15T22:11:30.928Z,45.60
2023-04-15T22:14:00.083Z,46.80
2023-04-15T22:16:29.050Z,47.50
2023-04-15T22:18:57.192Z,47.10
2023-04-15T22:21:25.537Z,48.00
2023-04-15T22:24:37.263Z,47.90
2023-04-15T22:26:43.388Z,48.30
2023-04-15T22:29:11.631Z,48.40
2023-04-15T22:31:39.748Z,50.10
2023-04-15T22:34:08.568Z,51.30
2023-04-15T22:36:36.638Z,51.00
2023-04-15T22:39:05.015Z,52.20
2023-04-15T22:41:33.325Z,52.40
2023-04-15T22:44:02.672Z,53.10
2023-04-15T22:46:30.820Z,55.10
2023-04-15T22:48:58.894Z,55.00
2023-04-15T22:51:28.052Z,56.60
2023-04-15T22:53:56.414Z,57.90
2023-04-15T22:56:24.798Z,60.40
2023-04-15T22:58:53.272Z,61.80
2023-04-15T23:01:22.696Z,62.50
2023-04-15T23:03:58.548Z,63.60
2023-04-15T23:06:35.329Z,65.70
2023-04-15T23:09:03.395Z,67.10
2023-04-15T23:11:31.716Z,69.50
2023-04-15T23:13:59.752Z,70.70
2023-04-15T23:16:29.179Z,70.50
2023-04-15T23:18:57.236Z,72.00
2023-04-15T23:21:27.314Z,74.00
2023-04-15T23:23:55.458Z,75.80
2023-04-15T23:26:25.024Z,79.20
2023-04-15T23:28:53.046Z,80.40
2023-04-15T23:31:21.177Z,81.50
2023-04-15T23:33:50.558Z,83.40
2023-04-15T23:36:18.703Z,81.40
2023-04-15T23:38:46.713Z,82.00
2023-04-15T23:41:15.034Z,84.40
2023-04-15T23:43:43.114Z,82.90
2023-04-15T23:46:11.878Z,84.00
2023-04-15T23:48:40.595Z,86.30
2023-04-15T23:51:10.089Z,87.90
2023-04-15T23:53:38.087Z,85.70
2023-04-15T23:56:06.954Z,86.20
2023-04-15T23:58:34.984Z,87.70
